createdAt,value
2018-09-18T00:00:42.818Z,99068.10
2018-09-18T00:03:46.107Z,99071.72
2018-09-18T00:06:49.327Z,99075.16
2018-09-18T00:09:52.553Z,99076.93
2018-09-18T00:12:55.718Z,99076.95
2018-09-18T00:15:58.889Z,99073.38
2018-09-18T00:19:02.218Z,99067.38
2018-09-18T00:22:05.679Z,99061.87
2018-09-18T00:25:08.913Z,99063.83
2018-09-18T00:28:12.234Z,99057.40
2018-09-18T00:31:15.449Z,99057.80
2018-09-18T00:34:18.668Z,99058.39
2018-09-18T00:37:22.067Z,99059.45
2018-09-18T00:40:25.144Z,99057.40
2018-09-18T00:43:28.378Z,99056.97
2018-09-18T00:46:31.477Z,99054.80
2018-09-18T00:49:34.681Z,99054.69
2018-09-18T00:52:37.957Z,99050.79
2018-09-18T00:55:41.139Z,99044.70
2018-09-18T00:58:44.397Z,99044.84
2018-09-18T01:01:47.639Z,99044.67
2018-09-18T01:04:51.358Z,99044.17
2018-09-18T01:07:54.658Z,99043.63
2018-09-18T01:10:57.859Z,99035.26
2018-09-18T01:14:01.041Z,99030.27
2018-09-18T01:17:04.601Z,99030.65
2018-09-18T01:20:07.868Z,99035.73
2018-09-18T01:23:11.157Z,99031.69
2018-09-18T01:26:14.619Z,99028.48
2018-09-18T01:29:17.906Z,99031.08
2018-09-18T01:32:21.106Z,99026.16
2018-09-18T01:35:24.243Z,99022.95
2018-09-18T01:38:27.515Z,99027.73
2018-09-18T01:41:30.738Z,99030.28
2018-09-18T01:44:34.317Z,99031.20
2018-09-18T01:47:37.538Z,99039.54
2018-09-18T01:50:40.752Z,99035.69
2018-09-18T01:53:43.880Z,99034.16
2018-09-18T01:56:47.084Z,99033.34
2018-09-18T01:59:51.189Z,99020.44
2018-09-18T02:02:54.322Z,99021.66
2018-09-18T02:05:57.811Z,99019.70
2018-09-18T02:09:00.846Z,99022.59
2018-09-18T02:12:04.062Z,99027.55
2018-09-18T02:15:07.298Z,99029.45
2018-09-18T02:18:10.525Z,99033.27
2018-09-18T02:21:13.701Z,99025.91
2018-09-18T02:24:16.926Z,99026.19
2018-09-18T02:27:19.967Z,99024.80
2018-09-18T02:31:26.313Z,99021.47
2018-09-18T02:34:29.377Z,99015.39
2018-09-18T02:37:32.604Z,99018.76
2018-09-18T02:40:35.736Z,99016.18
2018-09-18T02:43:39.154Z,99015.38
2018-09-18T02:46:42.381Z,99021.02
2018-09-18T02:49:45.509Z,99020.89
2018-09-18T02:52:48.653Z,99019.75
2018-09-18T02:55:51.832Z,99019.20
2018-09-18T02:58:55.252Z,99025.39
2018-09-18T03:01:58.416Z,99023.35
2018-09-18T03:05:01.579Z,99023.50
2018-09-18T03:08:04.721Z,99027.78
2018-09-18T03:11:08.871Z,99025.44
2018-09-18T03:14:12.222Z,99021.47
2018-09-18T03:17:15.446Z,99023.56
2018-09-18T03:20:18.613Z,99015.92
2018-09-18T03:23:22.026Z,99016.40
2018-09-18T03:26:25.142Z,99013.94
2018-09-18T03:30:32.396Z,99013.05
2018-09-18T03:33:35.507Z,99008.83
2018-09-18T03:36:38.598Z,99016.02
2018-09-18T03:39:41.632Z,99004.23
2018-09-18T03:42:44.778Z,99009.27
2018-09-18T03:45:48.173Z,99000.27
2018-09-18T03:48:51.216Z,99006.53
2018-09-18T03:51:54.374Z,99006.25
2018-09-18T03:54:57.417Z,99009.93
2018-09-18T03:58:00.700Z,99002.56
2018-09-18T04:01:03.865Z,99003.84
2018-09-18T04:04:06.981Z,99004.73
2018-09-18T04:07:10.138Z,99003.37
2018-09-18T04:14:20.468Z,99004.67
2018-09-18T04:17:23.748Z,98999.95
2018-09-18T04:20:26.837Z,98997.86
2018-09-18T04:23:30.203Z,99002.92
2018-09-18T04:26:33.402Z,99001.67
2018-09-18T04:29:36.673Z,98998.85
2018-09-18T04:32:39.706Z,99001.58
2018-09-18T04:35:42.885Z,98997.36
2018-09-18T04:38:45.986Z,98997.89
2018-09-18T04:41:49.033Z,98996.84
2018-09-18T04:44:52.332Z,98996.20
2018-09-18T04:47:55.383Z,98995.59
2018-09-18T04:50:58.498Z,99000.66
2018-09-18T04:54:01.619Z,98996.97
2018-09-18T04:57:04.916Z,98989.92
2018-09-18T05:00:08.459Z,98994.61
2018-09-18T05:03:11.744Z,98989.74
2018-09-18T05:06:14.856Z,98996.44
2018-09-18T05:09:18.061Z,98991.58
2018-09-18T05:12:21.097Z,99002.87
2018-09-18T05:15:24.190Z,99010.64
2018-09-18T05:18:27.272Z,99011.52
2018-09-18T05:21:30.336Z,99009.27
2018-09-18T05:24:33.456Z,99012.65
2018-09-18T05:27:37.512Z,99007.15
2018-09-18T05:30:40.517Z,99008.69
2018-09-18T05:33:43.691Z,99004.61
2018-09-18T05:36:46.783Z,99006.67
2018-09-18T05:39:49.950Z,99002.87
2018-09-18T05:42:53.021Z,99008.98
2018-09-18T05:45:56.054Z,99013.09
2018-09-18T05:48:59.093Z,99004.36
2018-09-18T05:52:02.237Z,99018.27
2018-09-18T05:55:05.627Z,99022.14
2018-09-18T05:58:08.781Z,99011.78
2018-09-18T06:01:11.888Z,99025.14
2018-09-18T06:04:15.014Z,99022.95
2018-09-18T06:07:18.377Z,99004.53
2018-09-18T06:10:21.478Z,99019.94
2018-09-18T06:13:24.657Z,99017.52
2018-09-18T06:16:27.790Z,99022.48
2018-09-18T06:19:30.950Z,99032.77
2018-09-18T06:22:34.137Z,99030.83
2018-09-18T06:25:37.225Z,99041.59
2018-09-18T06:28:40.528Z,99038.04
2018-09-18T06:31:43.705Z,99023.03
2018-09-18T06:34:46.795Z,99015.10
2018-09-18T06:37:49.875Z,99018.02
2018-09-18T06:40:53.007Z,99019.80
2018-09-18T06:43:56.130Z,99017.01
2018-09-18T06:46:59.273Z,99003.84
2018-09-18T06:50:02.689Z,99016.08
2018-09-18T06:53:06.414Z,99004.52
2018-09-18T06:56:09.648Z,99016.15
2018-09-18T06:59:12.883Z,99011.36
2018-09-18T07:02:16.119Z,99016.17
2018-09-18T07:05:19.283Z,99015.95
2018-09-18T07:08:23.619Z,99019.55
2018-09-18T07:11:26.868Z,99019.53
2018-09-18T07:14:29.958Z,99017.08
2018-09-18T07:17:33.170Z,99010.87
2018-09-18T07:20:36.334Z,99010.04
2018-09-18T07:23:39.771Z,99005.19
2018-09-18T07:26:43.075Z,99008.20
2018-09-18T07:29:46.330Z,99009.83
2018-09-18T07:32:49.431Z,99010.53
2018-09-18T07:35:52.555Z,99008.60
2018-09-18T07:38:55.724Z,99010.14
2018-09-18T07:41:58.828Z,99000.70
2018-09-18T07:48:15.673Z,99008.55
2018-09-18T07:51:18.916Z,99009.89
2018-09-18T07:54:21.973Z,99014.03
2018-09-18T07:57:25.112Z,99007.59
2018-09-18T08:00:28.238Z,99013.66
2018-09-18T08:03:31.544Z,98996.56
2018-09-18T08:06:34.814Z,98999.77
2018-09-18T08:09:38.047Z,99004.06
2018-09-18T08:12:41.267Z,98994.31
2018-09-18T08:15:44.933Z,98981.98
2018-09-18T08:18:49.178Z,98990.56
2018-09-18T08:21:52.418Z,98993.98
2018-09-18T08:24:55.578Z,98990.28
2018-09-18T08:27:58.672Z,98979.24
2018-09-18T08:31:01.768Z,98980.61
2018-09-18T08:34:04.897Z,98977.25
2018-09-18T08:37:07.919Z,98976.73
2018-09-18T08:40:11.227Z,98970.33
2018-09-18T08:43:14.378Z,98969.69
2018-09-18T08:46:17.519Z,98963.86
2018-09-18T08:49:20.585Z,98969.45
2018-09-18T08:52:23.749Z,98965.80
2018-09-18T08:55:27.663Z,98965.03
2018-09-18T08:58:30.846Z,98971.05
2018-09-18T09:01:33.843Z,98964.65
2018-09-18T09:04:37.015Z,98961.45
2018-09-18T09:07:40.359Z,98965.25
2018-09-18T09:10:43.523Z,98967.53
2018-09-18T09:13:46.705Z,98960.89
2018-09-18T09:16:49.918Z,98955.33
2018-09-18T09:19:53.372Z,98958.29
2018-09-18T09:22:56.613Z,98960.94
2018-09-18T09:25:59.623Z,98956.92
2018-09-18T09:29:02.742Z,98964.23
2018-09-18T09:32:06.068Z,98958.73
2018-09-18T09:35:09.090Z,98941.01
2018-09-18T09:38:12.251Z,98942.88
2018-09-18T09:41:15.286Z,98942.77
2018-09-18T09:44:18.303Z,98947.17
2018-09-18T09:47:21.425Z,98928.30
2018-09-18T09:50:24.567Z,98944.55
2018-09-18T09:53:27.625Z,98934.28
2018-09-18T09:56:30.796Z,98933.33
2018-09-18T09:59:34.326Z,98924.97
2018-09-18T10:02:43.206Z,98916.25
2018-09-18T10:05:46.401Z,98919.72
2018-09-18T10:08:49.531Z,98915.02
2018-09-18T10:11:52.846Z,98921.27
2018-09-18T10:14:56.201Z,98921.42
2018-09-18T10:17:59.606Z,98915.36
2018-09-18T10:21:02.626Z,98908.02
2018-09-18T10:24:06.243Z,98906.10
2018-09-18T10:27:09.554Z,98896.34
2018-09-18T10:30:12.675Z,98894.13
2018-09-18T10:33:15.844Z,98903.69
2018-09-18T10:36:19.010Z,98891.95
2018-09-18T10:39:22.217Z,98884.95
2018-09-18T10:42:25.507Z,98888.27
2018-09-18T10:45:28.703Z,98894.89
2018-09-18T10:48:36.416Z,98888.27
2018-09-18T10:51:39.774Z,98889.92
2018-09-18T10:54:42.891Z,98872.55
2018-09-18T10:57:45.992Z,98875.59
2018-09-18T11:00:49.544Z,98879.17
2018-09-18T11:03:52.767Z,98886.48
2018-09-18T11:06:56.056Z,98887.78
2018-09-18T11:09:59.348Z,98887.25
2018-09-18T11:13:02.569Z,98901.47
2018-09-18T11:16:06.335Z,98891.84
2018-09-18T11:19:11.292Z,98883.22
2018-09-18T11:22:14.630Z,98893.77
2018-09-18T11:25:17.905Z,98893.83
2018-09-18T11:28:21.015Z,98885.05
2018-09-18T11:31:24.178Z,98884.88
2018-09-18T11:34:27.371Z,98887.28
2018-09-18T11:37:30.509Z,98888.08
2018-09-18T11:40:34.062Z,98901.98
2018-09-18T11:43:38.490Z,98900.86
2018-09-18T11:46:41.804Z,98879.63
2018-09-18T11:49:46.066Z,98886.14
2018-09-18T11:52:49.467Z,98886.56
2018-09-18T11:55:52.735Z,98876.20
2018-09-18T11:58:56.011Z,98885.93
2018-09-18T12:01:59.211Z,98891.77
2018-09-18T12:05:02.384Z,98882.53
2018-09-18T12:08:05.620Z,98881.03
2018-09-18T12:11:08.994Z,98883.37
2018-09-18T12:14:12.195Z,98880.16
2018-09-18T12:17:15.411Z,98869.75
2018-09-18T12:20:18.555Z,98880.55
2018-09-18T12:23:21.666Z,98876.23
2018-09-18T12:26:24.838Z,98865.81
2018-09-18T12:29:27.939Z,98861.88
2018-09-18T12:32:31.238Z,98871.91
2018-09-18T12:35:35.001Z,98868.75
2018-09-18T12:38:38.313Z,98873.34
2018-09-18T12:41:42.328Z,98865.11
2018-09-18T12:44:45.622Z,98851.63
2018-09-18T12:47:49.581Z,98849.91
2018-09-18T12:50:52.926Z,98844.33
2018-09-18T12:53:56.132Z,98831.63
2018-09-18T12:56:59.796Z,98835.15
2018-09-18T13:00:03.181Z,98836.94
2018-09-18T13:03:07.404Z,98830.82
2018-09-18T13:06:10.618Z,98826.99
2018-09-18T13:09:13.770Z,98818.70
2018-09-18T13:12:16.914Z,98814.95
2018-09-18T13:15:20.163Z,98818.74
2018-09-18T13:18:23.349Z,98808.02
2018-09-18T13:21:26.758Z,98793.33
2018-09-18T13:24:29.826Z,98805.24
2018-09-18T13:27:33.816Z,98802.33
2018-09-18T13:30:37.089Z,98792.14
2018-09-18T13:33:40.719Z,98796.67
2018-09-18T13:36:43.968Z,98790.16
2018-09-18T13:39:47.123Z,98791.89
2018-09-18T13:42:50.256Z,98783.04
2018-09-18T13:45:53.472Z,98785.37
2018-09-18T13:48:56.620Z,98775.38
2018-09-18T13:51:59.850Z,98767.25
2018-09-18T13:55:03.002Z,98786.26
2018-09-18T13:58:06.192Z,98761.05
2018-09-18T14:01:09.497Z,98774.93
2018-09-18T14:04:13.161Z,98779.23
2018-09-18T14:07:17.285Z,98773.94
2018-09-18T14:10:21.314Z,98776.38
2018-09-18T14:13:25.149Z,98774.70
2018-09-18T14:16:29.327Z,98767.38
2018-09-18T14:19:33.283Z,98764.42
2018-09-18T14:22:37.400Z,98762.03
2018-09-18T14:25:41.964Z,98766.03
2018-09-18T14:28:46.100Z,98769.70
2018-09-18T14:31:50.222Z,98761.94
2018-09-18T14:34:54.720Z,98758.63
2018-09-18T14:37:58.586Z,98747.09
2018-09-18T14:41:02.569Z,98740.67
2018-09-18T14:44:05.739Z,98753.06
2018-09-18T14:47:08.837Z,98737.11
2018-09-18T14:50:12.187Z,98760.98
2018-09-18T14:53:15.157Z,98757.59
2018-09-18T14:56:18.252Z,98758.13
2018-09-18T14:59:21.372Z,98764.67
2018-09-18T15:02:24.608Z,98763.94
2018-09-18T15:05:27.730Z,98760.16
2018-09-18T15:09:34.505Z,98761.15
2018-09-18T15:12:37.651Z,98739.53
2018-09-18T15:15:40.911Z,98737.17
2018-09-18T15:18:43.994Z,98747.52
2018-09-18T15:21:47.141Z,98749.98
2018-09-18T15:24:50.164Z,98753.58
2018-09-18T15:27:53.358Z,98754.84
2018-09-18T15:30:56.475Z,98760.78
2018-09-18T15:33:59.817Z,98750.44
2018-09-18T15:37:02.902Z,98744.63
2018-09-18T15:40:06.098Z,98765.44
2018-09-18T15:43:10.414Z,98756.03
2018-09-18T15:46:14.237Z,98766.36
2018-09-18T15:49:17.479Z,98778.22
2018-09-18T15:52:20.769Z,98729.09
2018-09-18T15:55:24.029Z,98712.58
2018-09-18T15:58:28.898Z,98702.32
2018-09-18T16:01:32.127Z,98735.01
2018-09-18T16:04:35.178Z,98755.38
2018-09-18T16:07:38.299Z,98751.84
2018-09-18T16:10:41.647Z,98768.37
2018-09-18T16:13:44.882Z,98779.30
2018-09-18T16:16:48.256Z,98781.37
2018-09-18T16:19:51.415Z,98797.09
2018-09-18T16:22:54.632Z,98774.07
2018-09-18T16:25:57.795Z,98771.45
2018-09-18T16:29:00.974Z,98777.84
2018-09-18T16:32:04.128Z,98782.90
2018-09-18T16:35:07.477Z,98775.64
2018-09-18T16:38:10.723Z,98788.47
2018-09-18T16:41:13.845Z,98788.39
2018-09-18T16:44:17.179Z,98789.25
2018-09-18T16:47:20.374Z,98794.72
2018-09-18T16:50:23.507Z,98795.27
2018-09-18T16:53:26.734Z,98801.95
2018-09-18T16:56:30.680Z,98807.00
2018-09-18T16:59:33.854Z,98813.53
2018-09-18T17:02:37.263Z,98809.17
2018-09-18T17:05:40.463Z,98808.25
2018-09-18T17:08:43.580Z,98814.44
2018-09-18T17:11:46.839Z,98828.98
2018-09-18T17:14:49.945Z,98838.31
2018-09-18T17:17:53.045Z,98850.54
2018-09-18T17:20:56.297Z,98850.69
2018-09-18T17:23:59.487Z,98854.62
2018-09-18T17:27:02.619Z,98854.66
2018-09-18T17:30:06.218Z,98860.56
2018-09-18T17:33:09.271Z,98864.52
2018-09-18T17:36:12.396Z,98864.31
2018-09-18T17:39:15.567Z,98866.89
2018-09-18T17:42:18.772Z,98865.73
2018-09-18T17:45:22.087Z,98877.59
2018-09-18T17:48:25.213Z,98875.48
2018-09-18T17:51:28.333Z,98882.92
2018-09-18T17:54:31.460Z,98891.31
2018-09-18T17:57:34.582Z,98894.81
2018-09-18T18:00:37.986Z,98900.20
2018-09-18T18:03:41.314Z,98900.32
2018-09-18T18:06:44.431Z,98902.87
2018-09-18T18:09:47.828Z,98908.40
2018-09-18T18:12:50.993Z,98905.20
2018-09-18T18:15:54.170Z,98914.88
2018-09-18T18:18:57.335Z,98915.89
2018-09-18T18:22:00.784Z,98921.55
2018-09-18T18:25:03.947Z,98919.27
2018-09-18T18:28:07.209Z,98927.61
2018-09-18T18:31:10.420Z,98927.31
2018-09-18T18:34:13.635Z,98932.70
2018-09-18T18:37:16.925Z,98940.02
2018-09-18T18:40:20.170Z,98937.81
2018-09-18T18:43:23.511Z,98945.55
2018-09-18T18:46:26.610Z,98956.63
2018-09-18T18:49:36.130Z,98952.36
2018-09-18T18:52:39.241Z,98954.86
2018-09-18T18:55:42.436Z,98958.09
2018-09-18T18:58:45.668Z,98965.39
2018-09-18T19:01:48.716Z,98960.48
2018-09-18T19:04:51.833Z,98958.70
2018-09-18T19:07:55.093Z,98967.28
2018-09-18T19:10:58.263Z,98972.37
2018-09-18T19:14:01.417Z,98976.09
2018-09-18T19:17:04.468Z,98982.78
2018-09-18T19:20:07.959Z,98991.02
2018-09-18T19:23:11.263Z,98994.31
2018-09-18T19:26:14.701Z,99001.58
2018-09-18T19:29:17.731Z,99006.77
2018-09-18T19:32:21.014Z,99005.05
2018-09-18T19:35:27.843Z,98998.20
2018-09-18T19:38:31.179Z,99002.58
2018-09-18T19:41:34.376Z,99004.83
2018-09-18T19:44:37.735Z,99007.89
2018-09-18T19:47:40.843Z,99019.81
2018-09-18T19:50:44.187Z,99013.84
2018-09-18T19:53:47.382Z,99015.20
2018-09-18T19:56:50.593Z,99009.21
2018-09-18T19:59:53.703Z,99013.84
2018-09-18T20:02:56.968Z,99013.09
2018-09-18T20:06:00.257Z,99010.95
2018-09-18T20:09:05.151Z,99022.02
2018-09-18T20:12:08.332Z,99018.04
2018-09-18T20:15:11.581Z,99023.32
2018-09-18T20:18:14.760Z,99020.41
2018-09-18T20:21:17.899Z,99029.55
2018-09-18T20:24:21.059Z,99029.27
2018-09-18T20:27:24.119Z,99032.12
2018-09-18T20:30:27.327Z,99032.75
2018-09-18T20:33:30.472Z,99038.97
2018-09-18T20:36:33.619Z,99036.28
2018-09-18T20:39:36.873Z,99036.88
2018-09-18T20:42:40.244Z,99037.03
2018-09-18T20:45:43.718Z,99036.28
2018-09-18T20:48:46.875Z,99039.38
2018-09-18T20:51:50.032Z,99043.01
2018-09-18T20:54:53.280Z,99041.95
2018-09-18T20:57:56.487Z,99039.91
2018-09-18T21:00:59.685Z,99051.98
2018-09-18T21:04:02.872Z,99053.20
2018-09-18T21:07:05.970Z,99045.34
2018-09-18T21:10:09.082Z,99049.86
2018-09-18T21:13:12.254Z,99066.66
2018-09-18T21:16:15.405Z,99064.22
2018-09-18T21:19:18.569Z,99070.61
2018-09-18T21:22:21.732Z,99069.77
2018-09-18T21:26:03.639Z,99073.34
2018-09-18T21:29:06.837Z,99077.84
2018-09-18T21:32:09.948Z,99076.77
2018-09-18T21:35:13.128Z,99084.77
2018-09-18T21:38:16.318Z,99087.63
2018-09-18T21:41:19.434Z,99090.31
2018-09-18T21:44:22.691Z,99089.61
2018-09-18T21:47:26.158Z,99097.34
2018-09-18T21:50:31.558Z,99098.86
2018-09-18T21:53:34.955Z,99103.52
2018-09-18T21:56:38.066Z,99101.00
2018-09-18T21:59:41.211Z,99105.66
2018-09-18T22:02:44.399Z,99105.84
2018-09-18T22:05:47.623Z,99107.42
2018-09-18T22:08:50.783Z,99114.47
2018-09-18T22:11:53.983Z,99121.52
2018-09-18T22:14:57.182Z,99115.16
2018-09-18T22:18:00.390Z,99110.69
2018-09-18T22:21:03.570Z,99116.83
2018-09-18T22:24:06.791Z,99123.73
2018-09-18T22:27:10.063Z,99120.03
2018-09-18T22:30:13.236Z,99118.67
2018-09-18T22:33:16.367Z,99114.47
2018-09-18T22:36:19.676Z,99125.36
2018-09-18T22:39:22.999Z,99131.25
2018-09-18T22:42:27.284Z,99130.41
2018-09-18T22:45:30.537Z,99133.55
2018-09-18T22:48:33.663Z,99137.20
2018-09-18T22:51:36.853Z,99132.70
2018-09-18T22:54:40.020Z,99117.36
2018-09-18T22:57:43.222Z,99117.84
2018-09-18T23:00:46.424Z,99119.16
2018-09-18T23:03:49.536Z,99113.90
2018-09-18T23:06:52.601Z,99119.48
2018-09-18T23:09:55.753Z,99121.23
2018-09-18T23:12:58.975Z,99123.33
2018-09-18T23:16:02.178Z,99126.14
2018-09-18T23:19:05.354Z,99133.86
2018-09-18T23:22:08.449Z,99129.08
2018-09-18T23:25:11.505Z,99131.73
2018-09-18T23:28:14.687Z,99127.83
2018-09-18T23:31:17.895Z,99128.45
2018-09-18T23:34:21.014Z,99125.16
2018-09-18T23:37:24.223Z,99124.01
2018-09-18T23:40:27.398Z,99116.09
2018-09-18T23:43:30.584Z,99118.30
2018-09-18T23:46:33.802Z,99119.09
2018-09-18T23:49:36.927Z,99125.05
2018-09-18T23:52:40.052Z,99122.02
2018-09-18T23:55:43.250Z,99125.20
2018-09-18T23:58:46.706Z,99124.92
